Time;durP1;ratioP1;P1;durP2;ratioP2;P2;SDS_P1;SDS_P2;PMS_P1;PMS_P2;Temp;Humidity;BMP_temperature;BMP_pressure;BME280_temperature;BME280_humidity;BME280_pressure;Samples;Min_cycle;Max_cycle;Signal;HPM_P1;HPM_P2
2023/04/08 00:00:09;;;;;;;10.20;7.17;;;;;;;;;;5016565;28;20560;-71
2023/04/08 00:03:17;;;;;;;10.67;7.00;;;;;;;;;;5016385;28;20541;-71
2023/04/08 00:06:21;;;;;;;11.20;7.67;;;;;;;;;;5003982;28;21171;-72
2023/04/08 00:09:25;;;;;;;10.30;7.53;;;;;;;;;;5016013;28;20544;-72
2023/04/08 00:12:29;;;;;;;9.50;7.70;;;;;;;;;;5004133;28;20623;-72
2023/04/08 00:15:33;;;;;;;11.03;7.90;;;;;;;;;;5015981;28;20549;-72
2023/04/08 00:18:38;;;;;;;10.10;7.67;;;;;;;;;;5016119;28;20878;-72
2023/04/08 00:21:42;;;;;;;11.40;7.07;;;;;;;;;;5015901;28;21221;-72
2023/04/08 00:24:46;;;;;;;10.43;7.57;;;;;;;;;;5003874;28;20643;-72
2023/04/08 00:27:50;;;;;;;11.63;8.17;;;;;;;;;;4981888;28;20544;-72
2023/04/08 00:30:54;;;;;;;11.57;8.23;;;;;;;;;;5016018;28;20977;-72
2023/04/08 00:33:58;;;;;;;12.87;8.40;;;;;;;;;;5003755;28;20545;-72
2023/04/08 00:37:02;;;;;;;10.53;7.53;;;;;;;;;;4992467;28;20549;-72
2023/04/08 00:40:07;;;;;;;10.73;7.40;;;;;;;;;;5004208;28;21072;-72
2023/04/08 00:43:11;;;;;;;13.50;8.20;;;;;;;;;;5015427;28;20607;-72
2023/04/08 00:46:15;;;;;;;14.13;8.43;;;;;;;;;;4992420;28;20643;-72
2023/04/08 00:49:19;;;;;;;11.00;8.37;;;;;;;;;;4992303;28;21143;-72
2023/04/08 00:52:23;;;;;;;10.90;8.53;;;;;;;;;;5015460;28;20620;-72
2023/04/08 00:55:28;;;;;;;13.43;8.43;;;;;;;;;;5015810;28;20181;-72
2023/04/08 00:58:31;;;;;;;12.60;8.80;;;;;;;;;;5003371;28;20185;-72
2023/04/08 01:01:46;;;;;;;11.63;8.97;;;;;;;;;;4991942;28;20217;-72
2023/04/08 01:05:05;;;;;;;12.70;8.80;;;;;;;;;;5003252;28;20221;-72
2023/04/08 01:08:10;;;;;;;11.40;8.07;;;;;;;;;;5002946;28;20217;-72
2023/04/08 01:11:15;;;;;;;11.13;8.43;;;;;;;;;;4991593;28;20225;-72
2023/04/08 01:14:22;;;;;;;10.70;8.70;;;;;;;;;;5014828;28;20190;-72
2023/04/08 01:17:28;;;;;;;10.30;8.10;;;;;;;;;;5003059;28;20197;-72
2023/04/08 01:20:34;;;;;;;11.23;8.03;;;;;;;;;;5002715;28;20205;-72
2023/04/08 01:23:59;;;;;;;11.17;7.83;;;;;;;;;;5014891;28;20194;-72
2023/04/08 01:27:05;;;;;;;11.33;8.37;;;;;;;;;;5002756;28;20182;-72
2023/04/08 01:30:10;;;;;;;13.53;7.87;;;;;;;;;;5002527;28;20181;-72
2023/04/08 01:33:16;;;;;;;14.87;9.17;;;;;;;;;;5002273;28;20205;-72
2023/04/08 01:36:21;;;;;;;11.40;9.23;;;;;;;;;;5002324;28;20193;-72
2023/04/08 01:39:26;;;;;;;14.07;9.50;;;;;;;;;;4991335;28;20189;-72
2023/04/08 01:42:32;;;;;;;12.53;9.60;;;;;;;;;;5013951;28;20272;-72
2023/04/08 01:45:36;;;;;;;11.20;8.57;;;;;;;;;;5014290;28;20213;-72
2023/04/08 01:48:40;;;;;;;11.77;9.03;;;;;;;;;;5002115;28;20189;-72
2023/04/08 01:51:45;;;;;;;11.83;9.00;;;;;;;;;;5002106;28;20225;-72
2023/04/08 01:54:49;;;;;;;12.33;9.23;;;;;;;;;;4991303;28;20193;-72
2023/04/08 01:57:58;;;;;;;10.17;8.13;;;;;;;;;;5014518;28;20635;-72
2023/04/08 02:01:09;;;;;;;12.20;8.57;;;;;;;;;;5001946;28;20216;-72
2023/04/08 02:04:13;;;;;;;10.60;7.93;;;;;;;;;;5002078;28;20185;-72
2023/04/08 02:07:17;;;;;;;10.50;8.20;;;;;;;;;;5002035;28;20182;-72
2023/04/08 02:10:21;;;;;;;11.77;9.30;;;;;;;;;;5001709;28;20181;-72
2023/04/08 02:13:27;;;;;;;10.87;9.27;;;;;;;;;;4990898;28;20185;-72
2023/04/08 02:16:59;;;;;;;11.83;8.80;;;;;;;;;;5001629;28;20181;-72
2023/04/08 02:20:07;;;;;;;11.13;8.87;;;;;;;;;;5001588;28;20194;-72
2023/04/08 02:23:16;;;;;;;14.00;8.93;;;;;;;;;;5014101;28;20181;-72
2023/04/08 02:26:21;;;;;;;12.00;8.27;;;;;;;;;;4990772;28;20217;-72
2023/04/08 02:29:27;;;;;;;12.80;9.77;;;;;;;;;;5013690;28;20182;-72
2023/04/08 02:32:32;;;;;;;12.90;9.00;;;;;;;;;;5001555;28;20221;-72
2023/04/08 02:35:39;;;;;;;10.97;8.60;;;;;;;;;;5001834;28;20174;-72
2023/04/08 02:38:50;;;;;;;12.83;9.53;;;;;;;;;;4990483;28;20662;-72
2023/04/08 02:41:54;;;;;;;12.90;9.10;;;;;;;;;;5013844;28;20681;-72
2023/04/08 02:44:59;;;;;;;12.53;9.80;;;;;;;;;;5001165;28;20177;-72
2023/04/08 02:48:05;;;;;;;13.47;9.53;;;;;;;;;;5001187;28;20662;-72
2023/04/08 02:51:10;;;;;;;10.47;8.57;;;;;;;;;;5001089;28;20570;-72
2023/04/08 02:54:14;;;;;;;11.43;8.97;;;;;;;;;;5001436;28;20189;-72
2023/04/08 02:57:18;;;;;;;11.10;8.77;;;;;;;;;;5001629;28;20197;-72
2023/04/08 03:00:22;;;;;;;11.17;9.27;;;;;;;;;;5013380;28;20205;-72
2023/04/08 03:03:28;;;;;;;11.53;9.20;;;;;;;;;;5013632;28;20193;-72
2023/04/08 03:06:32;;;;;;;12.93;9.13;;;;;;;;;;5013059;28;20217;-72
2023/04/08 03:09:36;;;;;;;12.37;9.23;;;;;;;;;;5001312;28;20189;-72
2023/04/08 03:12:40;;;;;;;11.57;8.93;;;;;;;;;;4989789;28;20571;-72
2023/04/08 03:15:45;;;;;;;12.77;9.23;;;;;;;;;;5001415;28;20182;-72
2023/04/08 03:18:52;;;;;;;10.60;8.83;;;;;;;;;;5013305;28;20642;-72
2023/04/08 03:21:56;;;;;;;13.47;9.73;;;;;;;;;;4989792;28;20217;-72
2023/04/08 03:25:01;;;;;;;13.87;9.00;;;;;;;;;;5001134;28;20185;-71
2023/04/08 03:28:05;;;;;;;12.80;9.40;;;;;;;;;;5012898;28;20189;-71
2023/04/08 03:31:09;;;;;;;12.13;9.23;;;;;;;;;;5012775;28;20221;-70
2023/04/08 03:34:12;;;;;;;14.00;9.73;;;;;;;;;;5016129;28;20189;-70
2023/04/08 03:37:17;;;;;;;11.67;9.67;;;;;;;;;;5016613;28;20177;-70
2023/04/08 03:40:21;;;;;;;14.60;10.83;;;;;;;;;;5004629;28;20189;-70
2023/04/08 03:43:26;;;;;;;15.93;10.70;;;;;;;;;;5016381;28;20671;-70
2023/04/08 03:46:30;;;;;;;13.37;10.10;;;;;;;;;;5004427;28;20225;-70
2023/04/08 03:49:34;;;;;;;13.73;10.27;;;;;;;;;;5016287;28;20200;-70
2023/04/08 03:52:38;;;;;;;15.20;10.13;;;;;;;;;;5004083;28;20591;-70
2023/04/08 03:55:42;;;;;;;14.13;9.83;;;;;;;;;;5004637;28;20184;-70
2023/04/08 03:58:46;;;;;;;15.10;11.07;;;;;;;;;;5004626;28;20642;-70
2023/04/08 04:01:52;;;;;;;15.13;10.90;;;;;;;;;;5016738;28;20229;-70
2023/04/08 04:04:56;;;;;;;14.93;11.03;;;;;;;;;;5004468;28;20186;-70
2023/04/08 04:08:00;;;;;;;16.00;11.47;;;;;;;;;;5015889;28;20181;-70
2023/04/08 04:11:04;;;;;;;15.17;10.83;;;;;;;;;;5016418;28;20237;-71
2023/04/08 04:14:08;;;;;;;14.83;11.03;;;;;;;;;;5016104;28;20193;-71
2023/04/08 04:17:12;;;;;;;18.07;11.33;;;;;;;;;;5003843;28;20545;-71
2023/04/08 04:20:17;;;;;;;15.23;10.70;;;;;;;;;;5016004;28;20296;-71
2023/04/08 04:23:24;;;;;;;15.57;11.30;;;;;;;;;;5004169;28;20189;-70
2023/04/08 04:26:28;;;;;;;15.83;12.20;;;;;;;;;;5004328;28;20209;-70
2023/04/08 04:29:33;;;;;;;15.43;11.03;;;;;;;;;;5015825;28;20189;-70
2023/04/08 04:32:37;;;;;;;18.60;11.53;;;;;;;;;;5003429;28;20746;-70
2023/04/08 04:35:41;;;;;;;15.90;11.17;;;;;;;;;;5015486;28;20210;-70
2023/04/08 04:38:45;;;;;;;16.53;11.20;;;;;;;;;;5003300;28;20181;-70
2023/04/08 04:41:50;;;;;;;15.73;10.90;;;;;;;;;;5015698;28;20714;-70
2023/04/08 04:44:54;;;;;;;18.33;12.17;;;;;;;;;;5009247;28;20197;-71
2023/04/08 04:47:58;;;;;;;16.17;10.83;;;;;;;;;;4992110;28;20594;-70
2023/04/08 04:51:02;;;;;;;15.73;11.67;;;;;;;;;;4992074;28;20234;-71
2023/04/08 04:54:07;;;;;;;16.07;11.20;;;;;;;;;;5003646;28;20657;-70
2023/04/08 04:57:11;;;;;;;16.53;11.97;;;;;;;;;;5015086;28;20208;-70
2023/04/08 05:00:15;;;;;;;15.70;11.40;;;;;;;;;;5015632;28;20213;-70
2023/04/08 05:03:20;;;;;;;16.13;10.83;;;;;;;;;;5048986;23;20244;-85
2023/04/08 05:06:25;;;;;;;13.93;10.83;;;;;;;;;;5012141;28;20210;-86
2023/04/08 05:09:29;;;;;;;18.23;11.77;;;;;;;;;;5001618;28;20260;-85
2023/04/08 05:12:35;;;;;;;16.30;12.60;;;;;;;;;;5012002;28;20220;-86
2023/04/08 05:16:45;;;;;;;15.70;11.57;;;;;;;;;;5012128;28;20211;-85
2023/04/08 05:19:50;;;;;;;14.83;11.23;;;;;;;;;;5012637;28;20181;-85
2023/04/08 05:22:55;;;;;;;14.53;10.43;;;;;;;;;;5025061;28;20707;-85
2023/04/08 05:25:58;;;;;;;16.40;11.43;;;;;;;;;;5013462;28;20189;-84
2023/04/08 05:29:02;;;;;;;17.17;12.33;;;;;;;;;;5012756;28;20649;-84
2023/04/08 05:32:07;;;;;;;16.77;12.53;;;;;;;;;;5012969;28;20188;-85
2023/04/08 05:35:11;;;;;;;17.10;11.43;;;;;;;;;;5001676;28;20195;-84
2023/04/08 05:38:15;;;;;;;16.13;11.53;;;;;;;;;;5001590;28;20203;-85
2023/04/08 05:41:20;;;;;;;17.70;11.37;;;;;;;;;;5011890;28;20676;-85
2023/04/08 05:44:24;;;;;;;21.33;12.37;;;;;;;;;;5012006;28;20224;-86
2023/04/08 05:47:28;;;;;;;29.70;16.73;;;;;;;;;;5002657;28;20212;-85
2023/04/08 05:50:34;;;;;;;16.73;12.30;;;;;;;;;;5013125;28;20181;-84
2023/04/08 05:53:38;;;;;;;18.63;12.13;;;;;;;;;;5001575;28;20224;-85
2023/04/08 05:56:45;;;;;;;19.30;13.00;;;;;;;;;;5012475;28;20185;-84
2023/04/08 05:59:49;;;;;;;15.37;10.93;;;;;;;;;;5001711;28;20204;-84
2023/04/08 06:02:54;;;;;;;15.70;11.60;;;;;;;;;;5002051;28;20244;-85
2023/04/08 06:05:58;;;;;;;16.87;13.20;;;;;;;;;;4994020;28;20192;-84
2023/04/08 06:09:02;;;;;;;18.97;12.10;;;;;;;;;;5002453;28;20191;-85
2023/04/08 06:12:07;;;;;;;16.50;12.37;;;;;;;;;;5000726;28;20268;-84
2023/04/08 06:15:10;;;;;;;15.60;10.67;;;;;;;;;;4990660;28;20561;-85
2023/04/08 06:18:16;;;;;;;14.50;10.20;;;;;;;;;;5013206;28;20189;-84
2023/04/08 06:21:20;;;;;;;15.27;11.40;;;;;;;;;;5002867;28;20190;-85
2023/04/08 06:24:26;;;;;;;15.23;10.83;;;;;;;;;;4991529;28;20223;-85
2023/04/08 06:27:30;;;;;;;16.13;12.50;;;;;;;;;;4996089;28;20717;-84
2023/04/08 06:30:34;;;;;;;12.87;10.57;;;;;;;;;;5004417;28;20198;-84
2023/04/08 06:33:38;;;;;;;14.00;10.67;;;;;;;;;;5013698;28;20238;-85
2023/04/08 06:36:42;;;;;;;13.90;10.37;;;;;;;;;;5003137;28;20208;-84
2023/04/08 06:39:47;;;;;;;14.53;11.57;;;;;;;;;;4989157;28;20196;-86
2023/04/08 06:42:51;;;;;;;16.37;11.37;;;;;;;;;;4989843;28;20230;-85
2023/04/08 06:46:16;;;;;;;15.27;11.00;;;;;;;;;;5000786;28;20564;-84
2023/04/08 06:49:21;;;;;;;15.70;11.47;;;;;;;;;;4990227;28;20185;-85
2023/04/08 06:52:25;;;;;;;14.30;10.80;;;;;;;;;;5001118;28;20193;-86
2023/04/08 06:55:29;;;;;;;19.10;14.27;;;;;;;;;;4999683;28;20188;-85
2023/04/08 06:58:33;;;;;;;19.23;14.23;;;;;;;;;;4989744;28;20201;-85
2023/04/08 07:01:41;;;;;;;17.13;11.40;;;;;;;;;;4998867;28;20220;-85
2023/04/08 07:04:45;;;;;;;15.23;11.87;;;;;;;;;;5001086;28;20204;-85
2023/04/08 07:07:49;;;;;;;14.47;12.10;;;;;;;;;;4998131;28;20220;-85
2023/04/08 07:10:53;;;;;;;15.97;12.27;;;;;;;;;;4995467;28;20584;-85
2023/04/08 07:13:58;;;;;;;15.30;11.47;;;;;;;;;;5002394;28;20228;-85
2023/04/08 07:17:02;;;;;;;15.43;11.30;;;;;;;;;;4991854;28;20212;-85
2023/04/08 07:20:06;;;;;;;13.27;10.97;;;;;;;;;;5005747;28;20553;-85
2023/04/08 07:23:10;;;;;;;14.00;10.40;;;;;;;;;;5015241;28;20716;-85
2023/04/08 07:26:15;;;;;;;18.33;12.77;;;;;;;;;;4994301;28;20217;-85
2023/04/08 07:29:19;;;;;;;13.07;10.80;;;;;;;;;;4991376;28;20201;-85
2023/04/08 07:32:23;;;;;;;15.50;10.67;;;;;;;;;;5014204;28;20200;-85
2023/04/08 07:35:28;;;;;;;14.30;10.90;;;;;;;;;;5003953;28;20204;-85
2023/04/08 07:38:32;;;;;;;12.37;10.07;;;;;;;;;;4992895;28;20659;-85
2023/04/08 07:41:36;;;;;;;14.70;10.23;;;;;;;;;;5004097;28;20201;-85
2023/04/08 07:44:40;;;;;;;14.57;10.13;;;;;;;;;;4990557;28;20208;-85
2023/04/08 07:47:44;;;;;;;14.80;10.77;;;;;;;;;;4994596;28;20584;-85
2023/04/08 07:50:48;;;;;;;12.83;10.07;;;;;;;;;;4992811;28;20209;-85
2023/04/08 07:53:52;;;;;;;12.30;10.23;;;;;;;;;;5003912;28;20230;-86
2023/04/08 07:56:58;;;;;;;14.23;11.70;;;;;;;;;;5001895;28;20199;-86
2023/04/08 08:00:03;;;;;;;13.43;10.40;;;;;;;;;;4997504;28;20208;-86
2023/04/08 08:03:18;;;;;;;13.07;9.43;;;;;;;;;;5008203;28;20236;-87
2023/04/08 08:06:22;;;;;;;13.07;10.07;;;;;;;;;;5004985;28;20209;-87
2023/04/08 08:09:29;;;;;;;14.90;11.13;;;;;;;;;;4982639;28;20174;-88
2023/04/08 08:12:35;;;;;;;17.07;11.13;;;;;;;;;;4982321;28;20289;-87
2023/04/08 08:15:40;;;;;;;12.67;9.90;;;;;;;;;;4960424;28;20597;-87
2023/04/08 08:18:45;;;;;;;14.43;10.70;;;;;;;;;;4986856;28;20659;-86
2023/04/08 08:21:49;;;;;;;13.87;10.23;;;;;;;;;;5024221;28;20195;-87
2023/04/08 08:24:56;;;;;;;12.10;9.87;;;;;;;;;;5013094;28;20198;-87
2023/04/08 08:28:01;;;;;;;12.97;10.50;;;;;;;;;;5012721;28;20204;-85
2023/04/08 08:31:05;;;;;;;12.10;9.63;;;;;;;;;;5012463;28;20209;-86
2023/04/08 08:34:09;;;;;;;16.73;10.83;;;;;;;;;;5013044;28;20216;-84
2023/04/08 08:37:14;;;;;;;13.80;9.87;;;;;;;;;;5016141;28;20190;-85
2023/04/08 08:40:18;;;;;;;12.57;8.77;;;;;;;;;;5004629;28;20185;-84
2023/04/08 08:43:27;;;;;;;12.47;8.83;;;;;;;;;;5028527;28;20558;-82
2023/04/08 08:46:31;;;;;;;9.17;7.33;;;;;;;;;;5002299;28;20204;-83
2023/04/08 08:49:35;;;;;;;8.37;6.30;;;;;;;;;;5002468;28;20172;-83
2023/04/08 08:52:47;;;;;;;10.30;6.77;;;;;;;;;;5013092;28;20567;-83
2023/04/08 08:55:51;;;;;;;8.40;6.77;;;;;;;;;;5013254;28;20193;-83
2023/04/08 08:58:55;;;;;;;9.93;7.00;;;;;;;;;;5004465;28;20177;-83
2023/04/08 09:01:59;;;;;;;10.03;6.90;;;;;;;;;;5016605;28;20185;-84
2023/04/08 09:05:04;;;;;;;10.23;6.77;;;;;;;;;;5004537;28;20177;-83
2023/04/08 09:08:29;;;;;;;11.40;7.47;;;;;;;;;;5014672;28;20228;-83
2023/04/08 09:11:33;;;;;;;10.53;8.50;;;;;;;;;;5014701;28;20189;-83
2023/04/08 09:14:37;;;;;;;10.00;8.03;;;;;;;;;;5004617;28;20204;-84
2023/04/08 09:17:41;;;;;;;10.90;9.03;;;;;;;;;;5027679;28;20184;-82
2023/04/08 09:20:52;;;;;;;12.83;8.67;;;;;;;;;;5039384;28;20184;-83
2023/04/08 09:23:56;;;;;;;12.40;8.50;;;;;;;;;;5003646;28;20212;-83
2023/04/08 09:27:00;;;;;;;13.70;9.73;;;;;;;;;;5015563;28;20193;-83
2023/04/08 09:30:15;;;;;;;10.63;8.90;;;;;;;;;;5003702;28;20181;-83
2023/04/08 09:33:19;;;;;;;11.83;9.73;;;;;;;;;;5025665;28;20224;-83
2023/04/08 09:36:26;;;;;;;11.87;9.10;;;;;;;;;;5003574;28;20208;-81
2023/04/08 09:39:31;;;;;;;15.10;9.80;;;;;;;;;;5015363;28;20185;-82
2023/04/08 09:42:39;;;;;;;18.10;11.83;;;;;;;;;;5015467;28;20216;-83
2023/04/08 09:45:45;;;;;;;23.30;14.97;;;;;;;;;;5016004;28;20184;-83
2023/04/08 09:49:03;;;;;;;15.77;11.20;;;;;;;;;;5016176;28;20704;-83
2023/04/08 09:52:10;;;;;;;13.00;9.80;;;;;;;;;;5004271;28;20202;-83
2023/04/08 09:55:18;;;;;;;16.77;11.70;;;;;;;;;;5026453;28;20195;-83
2023/04/08 09:58:28;;;;;;;13.60;9.80;;;;;;;;;;5014529;28;20182;-83
2023/04/08 10:01:38;;;;;;;13.37;10.00;;;;;;;;;;5004736;28;20185;-83
2023/04/08 10:04:46;;;;;;;11.63;9.07;;;;;;;;;;5015265;28;20208;-83
2023/04/08 10:07:51;;;;;;;12.23;9.17;;;;;;;;;;5015330;28;20216;-83
2023/04/08 10:10:56;;;;;;;10.70;8.17;;;;;;;;;;5003812;28;20181;-84
2023/04/08 10:14:01;;;;;;;8.67;7.73;;;;;;;;;;5015086;28;20286;-83
2023/04/08 10:17:26;;;;;;;13.53;9.17;;;;;;;;;;5002620;28;20193;-85
2023/04/08 10:20:33;;;;;;;13.00;9.70;;;;;;;;;;5012834;28;20181;-85
2023/04/08 10:24:10;;;;;;;12.90;9.60;;;;;;;;;;5011274;28;20708;-86
2023/04/08 10:27:40;;;;;;;11.10;8.80;;;;;;;;;;4999440;28;20205;-86
2023/04/08 10:30:49;;;;;;;13.53;9.17;;;;;;;;;;5012095;28;20201;-85
2023/04/08 10:33:55;;;;;;;14.10;9.90;;;;;;;;;;5012534;28;20697;-86
2023/04/08 10:37:02;;;;;;;11.67;9.57;;;;;;;;;;5013446;28;20189;-85
2023/04/08 10:40:17;;;;;;;11.70;9.23;;;;;;;;;;5022619;28;20176;-87
2023/04/08 10:43:23;;;;;;;9.90;8.27;;;;;;;;;;5011587;28;20701;-85
2023/04/08 10:46:27;;;;;;;11.10;8.00;;;;;;;;;;5011943;28;20204;-87
2023/04/08 10:49:33;;;;;;;11.53;8.63;;;;;;;;;;4999814;28;20209;-86
2023/04/08 10:52:47;;;;;;;12.33;8.77;;;;;;;;;;5009954;28;20224;-86
2023/04/08 10:55:51;;;;;;;10.47;8.80;;;;;;;;;;4999233;28;20185;-86
2023/04/08 10:58:55;;;;;;;11.87;9.97;;;;;;;;;;5010107;28;20176;-86
2023/04/08 11:02:00;;;;;;;10.23;8.90;;;;;;;;;;5000483;28;20192;-86
2023/04/08 11:05:05;;;;;;;11.43;9.27;;;;;;;;;;5017921;23;20705;-82
2023/04/08 11:08:12;;;;;;;11.83;9.80;;;;;;;;;;5004579;28;20677;-82
2023/04/08 11:11:20;;;;;;;22.10;16.67;;;;;;;;;;4979755;28;20645;-82
2023/04/08 11:14:26;;;;;;;47.77;31.43;;;;;;;;;;5000445;28;20243;-82
2023/04/08 11:17:33;;;;;;;13.70;11.50;;;;;;;;;;5010302;28;20209;-82
2023/04/08 11:20:39;;;;;;;13.17;11.07;;;;;;;;;;5023363;28;20660;-82
2023/04/08 11:23:48;;;;;;;12.27;9.50;;;;;;;;;;5012761;28;20223;-83
2023/04/08 11:26:53;;;;;;;13.63;10.23;;;;;;;;;;5024650;28;20189;-82
2023/04/08 11:29:58;;;;;;;11.03;9.33;;;;;;;;;;5022416;28;20224;-82
2023/04/08 11:33:03;;;;;;;11.73;9.20;;;;;;;;;;5010341;28;20189;-82
2023/04/08 11:36:12;;;;;;;13.67;9.80;;;;;;;;;;5021703;28;20201;-82
2023/04/08 11:39:16;;;;;;;12.27;10.07;;;;;;;;;;5011942;28;20204;-82
2023/04/08 11:42:31;;;;;;;13.23;9.50;;;;;;;;;;5023594;28;20203;-82
2023/04/08 11:45:41;;;;;;;12.43;10.00;;;;;;;;;;5011766;28;20225;-82
2023/04/08 11:49:06;;;;;;;12.27;9.50;;;;;;;;;;5023407;28;20226;-82
2023/04/08 11:52:10;;;;;;;14.30;11.47;;;;;;;;;;5011106;28;20536;-83
2023/04/08 11:55:25;;;;;;;13.27;10.20;;;;;;;;;;5037523;28;20231;-82
2023/04/08 11:58:29;;;;;;;14.60;10.43;;;;;;;;;;5015788;28;20656;-82
2023/04/08 12:01:33;;;;;;;14.27;10.07;;;;;;;;;;5025831;28;20696;-82
2023/04/08 12:04:38;;;;;;;13.80;10.57;;;;;;;;;;5028315;28;20743;-83
2023/04/08 12:07:42;;;;;;;13.83;10.17;;;;;;;;;;5015356;28;20181;-83
2023/04/08 12:10:46;;;;;;;12.97;9.60;;;;;;;;;;5017205;28;20185;-83
2023/04/08 12:13:51;;;;;;;10.50;9.37;;;;;;;;;;5021522;28;20221;-83
2023/04/08 12:16:55;;;;;;;10.90;9.27;;;;;;;;;;5031216;28;20184;-83
2023/04/08 12:19:59;;;;;;;11.50;9.50;;;;;;;;;;5018534;28;20197;-83
2023/04/08 12:23:03;;;;;;;13.43;9.77;;;;;;;;;;5027799;28;20181;-83
2023/04/08 12:26:09;;;;;;;13.87;9.57;;;;;;;;;;5016290;28;20181;-83
2023/04/08 12:29:14;;;;;;;12.13;9.00;;;;;;;;;;5027847;28;20256;-83
2023/04/08 12:32:19;;;;;;;16.03;11.87;;;;;;;;;;5017088;28;20185;-82
2023/04/08 12:35:23;;;;;;;12.60;9.97;;;;;;;;;;5017426;28;20228;-82
2023/04/08 12:38:27;;;;;;;13.00;10.00;;;;;;;;;;5016825;28;20173;-83
2023/04/08 12:41:32;;;;;;;12.60;9.50;;;;;;;;;;5015296;28;20181;-82
2023/04/08 12:44:36;;;;;;;12.13;9.37;;;;;;;;;;5014263;28;20217;-82
2023/04/08 12:47:40;;;;;;;13.97;10.23;;;;;;;;;;5025479;28;20181;-82
2023/04/08 12:50:44;;;;;;;15.30;10.70;;;;;;;;;;5014373;28;20190;-82
2023/04/08 12:53:49;;;;;;;14.37;10.50;;;;;;;;;;5038709;28;20237;-82
2023/04/08 12:56:55;;;;;;;14.50;10.10;;;;;;;;;;5026406;28;20592;-83
2023/04/08 13:00:00;;;;;;;13.07;9.70;;;;;;;;;;5025914;28;20177;-83
2023/04/08 13:03:05;;;;;;;15.93;11.23;;;;;;;;;;5027246;28;20185;-83
2023/04/08 13:06:10;;;;;;;17.20;10.87;;;;;;;;;;5014447;28;20192;-83
2023/04/08 13:09:14;;;;;;;13.83;9.77;;;;;;;;;;5026789;28;20225;-83
2023/04/08 13:12:18;;;;;;;13.90;9.53;;;;;;;;;;5026100;28;20189;-83
2023/04/08 13:15:22;;;;;;;11.90;9.43;;;;;;;;;;5026113;28;20225;-83
2023/04/08 13:18:26;;;;;;;12.17;8.90;;;;;;;;;;5013159;28;20185;-83
2023/04/08 13:21:31;;;;;;;14.33;9.97;;;;;;;;;;5024180;28;20188;-82
2023/04/08 13:24:35;;;;;;;12.33;9.23;;;;;;;;;;5013063;28;20228;-82
2023/04/08 13:27:39;;;;;;;14.70;10.07;;;;;;;;;;5025314;28;20542;-82
2023/04/08 13:30:43;;;;;;;13.73;10.43;;;;;;;;;;5028687;28;20188;-82
2023/04/08 13:33:47;;;;;;;11.37;8.60;;;;;;;;;;5014388;28;20227;-82
2023/04/08 13:36:52;;;;;;;13.20;9.33;;;;;;;;;;5015637;28;20181;-82
2023/04/08 13:39:57;;;;;;;11.93;8.83;;;;;;;;;;5014741;28;20192;-82
2023/04/08 13:43:02;;;;;;;12.00;9.10;;;;;;;;;;5026601;28;20189;-83
2023/04/08 13:46:06;;;;;;;12.03;8.40;;;;;;;;;;5015337;28;20185;-82
2023/04/08 13:49:11;;;;;;;13.50;8.47;;;;;;;;;;5014108;28;20224;-83
2023/04/08 13:52:15;;;;;;;10.30;7.80;;;;;;;;;;5013754;28;20201;-82
2023/04/08 13:55:19;;;;;;;12.53;8.67;;;;;;;;;;5015040;28;20216;-82
2023/04/08 13:58:25;;;;;;;13.63;10.10;;;;;;;;;;5024767;28;20205;-83
2023/04/08 14:01:29;;;;;;;11.97;8.67;;;;;;;;;;5014278;28;20176;-82
2023/04/08 14:04:39;;;;;;;10.33;8.00;;;;;;;;;;5019397;28;20236;-83
2023/04/08 14:07:43;;;;;;;11.00;7.57;;;;;;;;;;5016625;28;20548;-83
2023/04/08 14:10:48;;;;;;;17.80;11.10;;;;;;;;;;5027082;28;20208;-83
2023/04/08 14:13:52;;;;;;;13.37;8.80;;;;;;;;;;5025232;28;20692;-82
2023/04/08 14:16:56;;;;;;;13.93;9.17;;;;;;;;;;5024785;28;20180;-83
2023/04/08 14:20:00;;;;;;;13.57;8.33;;;;;;;;;;5015732;28;20172;-83
2023/04/08 14:23:04;;;;;;;10.10;7.43;;;;;;;;;;5015490;28;20185;-82
2023/04/08 14:26:09;;;;;;;11.93;7.80;;;;;;;;;;5015179;28;20188;-82
2023/04/08 14:29:13;;;;;;;10.30;7.83;;;;;;;;;;5025983;28;20550;-83
2023/04/08 14:32:17;;;;;;;11.07;7.73;;;;;;;;;;5023600;28;20188;-82
2023/04/08 14:35:21;;;;;;;12.13;8.23;;;;;;;;;;5022804;28;20220;-82
2023/04/08 14:38:25;;;;;;;10.63;7.10;;;;;;;;;;5010788;28;20180;-82
2023/04/08 14:41:30;;;;;;;11.60;8.23;;;;;;;;;;5010749;28;20510;-82
2023/04/08 14:44:34;;;;;;;9.20;7.30;;;;;;;;;;4999048;28;20213;-82
2023/04/08 14:47:38;;;;;;;10.77;6.97;;;;;;;;;;4999040;28;20184;-82
2023/04/08 14:50:43;;;;;;;10.90;8.20;;;;;;;;;;5009989;28;20212;-82
2023/04/08 14:53:47;;;;;;;10.67;7.90;;;;;;;;;;5010299;28;20220;-82
2023/04/08 14:56:51;;;;;;;11.53;8.20;;;;;;;;;;5021921;28;20181;-82
2023/04/08 14:59:55;;;;;;;10.63;7.80;;;;;;;;;;5010500;28;20637;-81
2023/04/08 15:02:59;;;;;;;12.93;8.50;;;;;;;;;;5010406;28;20184;-82
2023/04/08 15:06:03;;;;;;;9.87;8.23;;;;;;;;;;5010433;28;20633;-82
2023/04/08 15:09:08;;;;;;;10.97;7.70;;;;;;;;;;5022311;28;20216;-82
2023/04/08 15:12:12;;;;;;;11.10;8.33;;;;;;;;;;5010680;28;20184;-82
2023/04/08 15:15:16;;;;;;;11.77;8.70;;;;;;;;;;5009681;28;20220;-82
2023/04/08 15:18:20;;;;;;;12.57;8.53;;;;;;;;;;5020881;28;20641;-82
2023/04/08 15:21:25;;;;;;;11.70;8.63;;;;;;;;;;5010212;28;20176;-82
2023/04/08 15:24:30;;;;;;;12.57;9.57;;;;;;;;;;5036581;28;20224;-82
2023/04/08 15:27:35;;;;;;;15.37;10.03;;;;;;;;;;5033933;28;20185;-82
2023/04/08 15:30:39;;;;;;;13.23;9.27;;;;;;;;;;5014754;28;20224;-82
2023/04/08 15:33:44;;;;;;;18.73;11.80;;;;;;;;;;5025842;28;20688;-82
2023/04/08 15:36:48;;;;;;;44.60;27.43;;;;;;;;;;5014584;28;20185;-82
2023/04/08 15:39:52;;;;;;;40.33;25.10;;;;;;;;;;5014392;28;20657;-82
2023/04/08 15:42:56;;;;;;;22.83;15.27;;;;;;;;;;5014599;28;20196;-82
2023/04/08 15:46:00;;;;;;;13.83;10.03;;;;;;;;;;5025442;28;20196;-82
2023/04/08 15:49:05;;;;;;;14.50;10.57;;;;;;;;;;5014321;28;20190;-82
2023/04/08 15:52:09;;;;;;;17.70;12.37;;;;;;;;;;5025581;28;20196;-84
2023/04/08 15:55:14;;;;;;;9.67;7.77;;;;;;;;;;5021019;28;20220;-83
2023/04/08 15:58:18;;;;;;;10.70;8.57;;;;;;;;;;5017146;28;20193;-83
2023/04/08 16:01:23;;;;;;;11.30;8.23;;;;;;;;;;5018102;28;20185;-84
2023/04/08 16:04:27;;;;;;;12.47;9.10;;;;;;;;;;5018621;28;20236;-83
2023/04/08 16:07:31;;;;;;;9.50;7.33;;;;;;;;;;5017172;28;20185;-83
2023/04/08 16:10:36;;;;;;;8.30;6.30;;;;;;;;;;5016591;28;20213;-83
2023/04/08 16:13:41;;;;;;;6.70;5.77;;;;;;;;;;5027550;28;20249;-83
2023/04/08 16:16:46;;;;;;;7.90;6.37;;;;;;;;;;5027595;28;20189;-83
2023/04/08 16:19:50;;;;;;;7.80;6.20;;;;;;;;;;5016275;28;20173;-83
2023/04/08 16:22:55;;;;;;;6.70;6.00;;;;;;;;;;5015877;28;20650;-82
2023/04/08 16:26:00;;;;;;;7.97;5.97;;;;;;;;;;5014819;28;20181;-83
2023/04/08 16:29:04;;;;;;;8.53;7.17;;;;;;;;;;5025821;28;20546;-83
2023/04/08 16:32:09;;;;;;;8.27;6.93;;;;;;;;;;5013390;28;20173;-82
2023/04/08 16:35:14;;;;;;;8.00;6.27;;;;;;;;;;5024117;28;20216;-81
2023/04/08 16:38:18;;;;;;;8.23;6.33;;;;;;;;;;5024374;28;20189;-82
2023/04/08 16:41:22;;;;;;;7.67;6.33;;;;;;;;;;5024402;28;20177;-82
2023/04/08 16:44:27;;;;;;;8.23;6.87;;;;;;;;;;5012671;28;20216;-82
2023/04/08 16:47:32;;;;;;;9.50;7.10;;;;;;;;;;5024657;28;20185;-82
2023/04/08 16:50:37;;;;;;;10.33;7.47;;;;;;;;;;5023872;28;20216;-83
2023/04/08 16:53:42;;;;;;;13.43;9.37;;;;;;;;;;5013266;28;20224;-83
2023/04/08 16:56:47;;;;;;;13.07;9.70;;;;;;;;;;5012986;28;20184;-83
2023/04/08 16:59:51;;;;;;;12.27;9.43;;;;;;;;;;5024004;28;20550;-83
2023/04/08 17:02:57;;;;;;;11.53;8.30;;;;;;;;;;5013029;28;20558;-83
2023/04/08 17:06:08;;;;;;;9.60;8.13;;;;;;;;;;5013864;28;20181;-82
2023/04/08 17:09:12;;;;;;;13.13;9.27;;;;;;;;;;5012956;28;20201;-82
2023/04/08 17:12:17;;;;;;;11.50;8.70;;;;;;;;;;5013015;28;20641;-83
2023/04/08 17:15:20;;;;;;;9.17;8.13;;;;;;;;;;5013530;28;20217;-82
2023/04/08 17:18:24;;;;;;;8.63;7.33;;;;;;;;;;5022409;28;20208;-82
2023/04/08 17:21:29;;;;;;;8.87;7.97;;;;;;;;;;5032297;28;20196;-82
2023/04/08 17:24:34;;;;;;;10.93;8.53;;;;;;;;;;4998381;28;20224;-82
2023/04/08 17:27:38;;;;;;;11.37;8.57;;;;;;;;;;4999259;28;20201;-82
2023/04/08 17:30:43;;;;;;;11.17;8.53;;;;;;;;;;5025530;28;20205;-82
2023/04/08 17:33:47;;;;;;;9.23;7.57;;;;;;;;;;5014269;28;20559;-82
2023/04/08 17:36:51;;;;;;;6.60;5.30;;;;;;;;;;5003915;28;20527;-82
2023/04/08 17:39:55;;;;;;;6.93;5.10;;;;;;;;;;4992674;28;20638;-82
2023/04/08 17:43:00;;;;;;;5.90;4.70;;;;;;;;;;5017786;28;20186;-83
2023/04/08 17:46:04;;;;;;;4.60;3.93;;;;;;;;;;4998100;28;20181;-82
2023/04/08 17:49:12;;;;;;;5.60;4.53;;;;;;;;;;5019146;28;20201;-83
2023/04/08 17:52:17;;;;;;;8.10;5.33;;;;;;;;;;5030196;28;20197;-83
2023/04/08 17:55:21;;;;;;;10.43;5.63;;;;;;;;;;5003012;28;20212;-82
2023/04/08 17:58:26;;;;;;;15.70;8.57;;;;;;;;;;5006427;28;20182;-83
2023/04/08 18:01:30;;;;;;;9.53;6.37;;;;;;;;;;4995536;28;20186;-82
2023/04/08 18:04:34;;;;;;;8.47;5.40;;;;;;;;;;5006027;28;20225;-83
2023/04/08 18:07:38;;;;;;;5.27;4.20;;;;;;;;;;4994419;28;20207;-83
2023/04/08 18:10:42;;;;;;;6.07;4.73;;;;;;;;;;5017015;28;20674;-83